Time;durP1;ratioP1;P1;durP2;ratioP2;P2;SDS_P1;SDS_P2;PMS_P1;PMS_P2;Temp;Humidity;BMP_temperature;BMP_pressure;BME280_temperature;BME280_humidity;BME280_pressure;Samples;Min_cycle;Max_cycle;Signal;HPM_P1;HPM_P2
2022/07/08 04:02:09;;;;;;;1999.90;999.90;;;;;;;;;;6284132;22;20587;-70
2022/07/08 04:04:54;;;;;;;1999.90;999.90;;;;;;;;;;6305438;22;20495;-71
2022/07/08 04:07:39;;;;;;;1999.90;999.90;;;;;;;;;;6305325;22;20180;-70
2022/07/08 04:10:26;;;;;;;1999.90;999.90;;;;;;;;;;6303344;22;20183;-69
2022/07/08 04:13:11;;;;;;;1999.90;999.90;;;;;;;;;;6274315;22;20438;-70
2022/07/08 04:15:56;;;;;;;1999.90;999.90;;;;;;;;;;6276070;22;20236;-71
2022/07/08 04:18:42;;;;;;;1999.90;999.90;;;;;;;;;;6275771;22;20549;-70
2022/07/08 04:21:28;;;;;;;1999.90;999.90;;;;;;;;;;6275461;22;20200;-70
2022/07/08 04:24:13;;;;;;;1999.90;999.90;;;;;;;;;;6276337;22;20565;-70
2022/07/08 04:26:58;;;;;;;1999.90;999.90;;;;;;;;;;6275893;22;20361;-70
2022/07/08 04:29:43;;;;;;;1999.90;999.90;;;;;;;;;;6276165;22;20165;-69
2022/07/08 04:32:28;;;;;;;1999.90;999.90;;;;;;;;;;6273917;22;20278;-69
2022/07/08 04:35:14;;;;;;;1999.90;999.90;;;;;;;;;;6274850;22;20180;-70
2022/07/08 04:37:59;;;;;;;1999.90;999.90;;;;;;;;;;6276034;22;20511;-70
2022/07/08 04:40:44;;;;;;;1999.90;999.90;;;;;;;;;;6276312;22;20216;-71
2022/07/08 04:43:29;;;;;;;1999.90;999.90;;;;;;;;;;6276153;22;20188;-71
2022/07/08 04:46:14;;;;;;;1999.90;999.90;;;;;;;;;;6276439;22;20625;-71
2022/07/08 04:48:59;;;;;;;1999.90;999.90;;;;;;;;;;6275863;22;20237;-70
2022/07/08 04:51:46;;;;;;;1999.90;999.90;;;;;;;;;;6276172;22;20385;-70
2022/07/08 04:54:30;;;;;;;1999.90;999.90;;;;;;;;;;6276216;22;20267;-69
2022/07/08 04:57:15;;;;;;;1999.90;999.90;;;;;;;;;;6274611;22;20173;-69
2022/07/08 05:00:02;;;;;;;1999.90;999.90;;;;;;;;;;6274362;22;20372;-70
2022/07/08 05:02:47;;;;;;;1999.90;999.90;;;;;;;;;;6274608;22;20686;-72
2022/07/08 05:05:33;;;;;;;1999.90;999.90;;;;;;;;;;6274839;22;20168;-70
2022/07/08 05:08:20;;;;;;;1999.90;999.90;;;;;;;;;;6274593;22;20741;-70
2022/07/08 05:11:05;;;;;;;1999.90;999.90;;;;;;;;;;6274920;22;20246;-70
2022/07/08 05:13:50;;;;;;;1999.90;999.90;;;;;;;;;;6274797;22;20161;-71
2022/07/08 05:16:35;;;;;;;1999.90;999.90;;;;;;;;;;6273929;22;20430;-70
2022/07/08 05:19:20;;;;;;;1999.90;999.90;;;;;;;;;;6275114;22;20251;-71
2022/07/08 05:22:05;;;;;;;1999.90;999.90;;;;;;;;;;6275092;22;20203;-70
2022/07/08 05:24:51;;;;;;;1999.90;999.90;;;;;;;;;;6274854;22;20166;-70
2022/07/08 05:27:36;;;;;;;1999.90;999.90;;;;;;;;;;6274888;22;20167;-74
2022/07/08 05:30:21;;;;;;;1999.90;999.90;;;;;;;;;;6274809;22;20164;-71
2022/07/08 05:33:06;;;;;;;1999.90;999.90;;;;;;;;;;6275003;22;20164;-71
2022/07/08 05:35:51;;;;;;;1999.90;999.90;;;;;;;;;;6274762;22;20279;-67
2022/07/08 05:38:36;;;;;;;1999.90;999.90;;;;;;;;;;6274383;22;20165;-69
2022/07/08 05:41:22;;;;;;;1999.90;999.90;;;;;;;;;;6274375;22;20533;-69
2022/07/08 05:44:07;;;;;;;1999.90;999.90;;;;;;;;;;6274462;22;20196;-70
2022/07/08 05:46:52;;;;;;;1999.90;999.90;;;;;;;;;;6274764;22;20237;-69
2022/07/08 05:49:37;;;;;;;1999.90;999.90;;;;;;;;;;6274559;22;20164;-70
2022/07/08 05:52:22;;;;;;;1999.90;999.90;;;;;;;;;;6274666;22;20207;-69
2022/07/08 05:55:09;;;;;;;1999.90;999.90;;;;;;;;;;6273411;22;20570;-69
2022/07/08 05:57:55;;;;;;;1999.90;999.90;;;;;;;;;;6273961;22;20203;-70
2022/07/08 06:00:40;;;;;;;1999.90;999.90;;;;;;;;;;6273979;22;20203;-70
2022/07/08 06:03:25;;;;;;;1999.90;999.90;;;;;;;;;;6273900;22;20392;-69
2022/07/08 06:06:09;;;;;;;1999.90;999.90;;;;;;;;;;6275604;22;20499;-70
2022/07/08 06:08:54;;;;;;;1999.90;999.90;;;;;;;;;;6275172;22;20224;-69
2022/07/08 06:11:39;;;;;;;1999.90;999.90;;;;;;;;;;6275349;22;20203;-69
2022/07/08 06:14:25;;;;;;;1999.90;999.90;;;;;;;;;;6275476;22;20165;-69
2022/07/08 06:17:11;;;;;;;1999.90;999.90;;;;;;;;;;6275311;22;20165;-67
2022/07/08 06:19:56;;;;;;;1999.90;999.90;;;;;;;;;;6274366;22;20211;-68
2022/07/08 06:22:41;;;;;;;1999.90;999.90;;;;;;;;;;6275304;22;20323;-70
2022/07/08 06:25:26;;;;;;;1999.90;999.90;;;;;;;;;;6275229;22;20169;-70
2022/07/08 06:28:11;;;;;;;1999.90;999.90;;;;;;;;;;6273948;22;20207;-67
2022/07/08 06:30:57;;;;;;;1999.90;999.90;;;;;;;;;;6274951;22;20284;-68
2022/07/08 06:33:42;;;;;;;1999.90;999.90;;;;;;;;;;6274609;22;20159;-68
2022/07/08 06:36:27;;;;;;;1999.90;999.90;;;;;;;;;;6273164;22;20164;-70
2022/07/08 06:39:12;;;;;;;1999.90;999.90;;;;;;;;;;6273821;22;20171;-68
2022/07/08 06:41:57;;;;;;;1999.90;999.90;;;;;;;;;;6274810;22;20200;-68
2022/07/08 06:44:42;;;;;;;1999.90;999.90;;;;;;;;;;6275039;22;20326;-68
2022/07/08 06:47:28;;;;;;;1999.90;999.90;;;;;;;;;;6271938;22;20175;-68
2022/07/08 06:50:13;;;;;;;1999.90;999.90;;;;;;;;;;6272400;22;20503;-69
2022/07/08 06:52:58;;;;;;;1999.90;999.90;;;;;;;;;;6274574;22;20167;-71
2022/07/08 06:55:43;;;;;;;1999.90;999.90;;;;;;;;;;6273734;22;20463;-71
2022/07/08 06:58:28;;;;;;;1999.90;999.90;;;;;;;;;;6274008;22;20171;-69
2022/07/08 07:01:13;;;;;;;1999.90;999.90;;;;;;;;;;6273307;22;20286;-69
2022/07/08 07:03:59;;;;;;;1999.90;999.90;;;;;;;;;;6270666;22;20234;-69
2022/07/08 07:06:44;;;;;;;1999.90;999.90;;;;;;;;;;6271892;22;20220;-70
2022/07/08 07:09:29;;;;;;;1999.90;999.90;;;;;;;;;;6271341;22;20176;-68
2022/07/08 07:12:14;;;;;;;1999.90;999.90;;;;;;;;;;6271439;22;20214;-69
2022/07/08 07:14:59;;;;;;;1999.90;999.90;;;;;;;;;;6271303;22;20175;-71
2022/07/08 07:17:44;;;;;;;1999.90;999.90;;;;;;;;;;6271426;22;20175;-70
2022/07/08 07:20:31;;;;;;;1999.90;999.90;;;;;;;;;;6272610;22;20621;-70
2022/07/08 07:23:16;;;;;;;1999.90;999.90;;;;;;;;;;6272299;22;20435;-70
2022/07/08 07:26:00;;;;;;;1999.90;999.90;;;;;;;;;;6272162;22;20172;-69
2022/07/08 07:28:45;;;;;;;1999.90;999.90;;;;;;;;;;6271652;22;20184;-68
2022/07/08 07:31:30;;;;;;;1999.90;999.90;;;;;;;;;;6272270;22;20645;-68
2022/07/08 07:34:16;;;;;;;1999.90;999.90;;;;;;;;;;6272924;22;20165;-70
2022/07/08 07:37:02;;;;;;;1999.90;999.90;;;;;;;;;;6272367;22;20254;-70
2022/07/08 07:39:47;;;;;;;1999.90;999.90;;;;;;;;;;6271321;22;20374;-71
2022/07/08 07:42:32;;;;;;;1999.90;999.90;;;;;;;;;;6271953;22;20276;-70
2022/07/08 07:45:19;;;;;;;1999.90;999.90;;;;;;;;;;6271920;22;20194;-71
2022/07/08 07:48:04;;;;;;;1999.90;999.90;;;;;;;;;;6273446;22;20502;-70
2022/07/08 07:50:49;;;;;;;1999.90;999.90;;;;;;;;;;6274339;22;20205;-70
2022/07/08 07:53:35;;;;;;;1999.90;999.90;;;;;;;;;;6273984;22;20160;-70
2022/07/08 07:56:21;;;;;;;1999.90;999.90;;;;;;;;;;6274125;22;20291;-70
2022/07/08 07:59:06;;;;;;;1999.90;999.90;;;;;;;;;;6274261;22;20498;-70
2022/07/08 08:01:51;;;;;;;1999.90;999.90;;;;;;;;;;6273655;22;20776;-70
2022/07/08 08:04:36;;;;;;;1999.90;999.90;;;;;;;;;;6274310;22;20202;-70
2022/07/08 08:07:21;;;;;;;1999.90;999.90;;;;;;;;;;6275016;22;20174;-70
2022/07/08 08:10:08;;;;;;;1999.90;999.90;;;;;;;;;;6274395;22;20618;-70
2022/07/08 08:12:53;;;;;;;1999.90;999.90;;;;;;;;;;6274477;22;20178;-71
2022/07/08 08:15:38;;;;;;;1999.90;999.90;;;;;;;;;;6274095;22;20231;-71
2022/07/08 08:18:23;;;;;;;1999.90;999.90;;;;;;;;;;6276276;22;20217;-71
2022/07/08 08:21:08;;;;;;;1999.90;999.90;;;;;;;;;;6276497;22;20203;-70
2022/07/08 08:23:53;;;;;;;1999.90;999.90;;;;;;;;;;6275748;22;20274;-71
2022/07/08 08:26:39;;;;;;;1999.90;999.90;;;;;;;;;;6274897;22;20522;-71
2022/07/08 08:29:24;;;;;;;1999.90;999.90;;;;;;;;;;6275201;22;20687;-71
2022/07/08 08:32:09;;;;;;;1999.90;999.90;;;;;;;;;;6276295;22;20200;-69
2022/07/08 08:34:53;;;;;;;1999.90;999.90;;;;;;;;;;6276551;22;20662;-71
2022/07/08 08:37:38;;;;;;;1999.90;999.90;;;;;;;;;;6275595;22;20167;-70
2022/07/08 08:40:24;;;;;;;1999.90;999.90;;;;;;;;;;6273740;22;20504;-71
2022/07/08 08:43:10;;;;;;;1999.90;999.90;;;;;;;;;;6276214;22;20222;-70
2022/07/08 08:45:56;;;;;;;1999.90;999.90;;;;;;;;;;6275370;22;20172;-69
2022/07/08 08:48:41;;;;;;;1999.90;999.90;;;;;;;;;;6275345;22;20216;-70
2022/07/08 08:51:28;;;;;;;1999.90;999.90;;;;;;;;;;6274825;22;20291;-69
2022/07/08 08:54:13;;;;;;;1999.90;999.90;;;;;;;;;;6275593;22;20164;-69
2022/07/08 08:56:59;;;;;;;1999.90;999.90;;;;;;;;;;6274794;22;20452;-70
2022/07/08 08:59:45;;;;;;;1999.90;999.90;;;;;;;;;;6274530;22;20215;-70
2022/07/08 09:02:30;;;;;;;1999.90;999.90;;;;;;;;;;6274445;22;20282;-71
2022/07/08 09:05:16;;;;;;;1999.90;999.90;;;;;;;;;;6275113;22;20246;-71
2022/07/08 09:08:00;;;;;;;1999.90;999.90;;;;;;;;;;6275076;22;20697;-71
2022/07/08 09:10:45;;;;;;;1999.90;999.90;;;;;;;;;;6274796;22;20246;-70
2022/07/08 09:13:30;;;;;;;1999.90;999.90;;;;;;;;;;6274049;22;20372;-71
2022/07/08 09:16:16;;;;;;;1999.90;999.90;;;;;;;;;;6275999;22;20172;-70
2022/07/08 09:19:11;;;;;;;1999.90;999.90;;;;;;;;;;6274732;22;20169;-70
2022/07/08 09:21:56;;;;;;;1999.90;999.90;;;;;;;;;;6275162;22;20242;-71
2022/07/08 09:24:41;;;;;;;1999.90;999.90;;;;;;;;;;6275813;22;20655;-70
2022/07/08 09:27:26;;;;;;;1999.90;999.90;;;;;;;;;;6275825;22;20168;-70
2022/07/08 09:30:15;;;;;;;1999.90;999.90;;;;;;;;;;6275235;22;20283;-70
2022/07/08 09:33:01;;;;;;;1999.90;999.90;;;;;;;;;;6275214;22;20223;-70
2022/07/08 09:35:50;;;;;;;1999.90;999.90;;;;;;;;;;6275272;22;20176;-70
2022/07/08 09:38:37;;;;;;;1999.90;999.90;;;;;;;;;;6274989;22;20167;-71
2022/07/08 09:41:21;;;;;;;1999.90;999.90;;;;;;;;;;6275664;22;20200;-70
2022/07/08 09:44:14;;;;;;;1999.90;999.90;;;;;;;;;;6274818;22;20268;-70
2022/07/08 09:47:01;;;;;;;1999.90;999.90;;;;;;;;;;6275622;22;20243;-70
2022/07/08 09:49:48;;;;;;;1999.90;999.90;;;;;;;;;;6274959;22;20223;-70
2022/07/08 09:52:32;;;;;;;1999.90;999.90;;;;;;;;;;6275517;22;20540;-71
2022/07/08 09:55:19;;;;;;;1999.90;999.90;;;;;;;;;;6274939;22;20244;-71
2022/07/08 09:58:04;;;;;;;1999.90;999.90;;;;;;;;;;6275183;22;20207;-71
2022/07/08 10:00:50;;;;;;;1999.90;999.90;;;;;;;;;;6274387;22;20387;-70
2022/07/08 10:03:36;;;;;;;1999.90;999.90;;;;;;;;;;6275135;22;20168;-71
2022/07/08 10:06:23;;;;;;;1999.90;999.90;;;;;;;;;;6275515;22;20168;-70
2022/07/08 10:09:08;;;;;;;1999.90;999.90;;;;;;;;;;6275267;22;20167;-71
2022/07/08 10:11:54;;;;;;;1999.90;999.90;;;;;;;;;;6274505;22;20203;-71
2022/07/08 10:14:39;;;;;;;1999.90;999.90;;;;;;;;;;6274841;22;20246;-69
2022/07/08 10:17:26;;;;;;;1999.90;999.90;;;;;;;;;;6275346;22;20218;-70
2022/07/08 10:20:12;;;;;;;1999.90;999.90;;;;;;;;;;6275292;22;20255;-70
2022/07/08 10:23:00;;;;;;;1999.90;999.90;;;;;;;;;;6274890;22;20167;-70
2022/07/08 10:25:45;;;;;;;1999.90;999.90;;;;;;;;;;6273388;22;20442;-71
2022/07/08 10:28:34;;;;;;;1999.90;999.90;;;;;;;;;;6274994;22;20169;-71
2022/07/08 10:31:20;;;;;;;1999.90;999.90;;;;;;;;;;6275192;22;20678;-70
2022/07/08 10:34:05;;;;;;;1999.90;999.90;;;;;;;;;;6274205;22;20172;-70
2022/07/08 10:36:51;;;;;;;1999.90;999.90;;;;;;;;;;6274550;22;20167;-69
2022/07/08 10:39:39;;;;;;;1999.90;999.90;;;;;;;;;;6274789;22;20536;-71
2022/07/08 10:42:24;;;;;;;1999.90;999.90;;;;;;;;;;6273438;22;20426;-72
2022/07/08 10:45:15;;;;;;;1999.90;999.90;;;;;;;;;;6274508;22;20188;-69
2022/07/08 10:48:06;;;;;;;1999.90;999.90;;;;;;;;;;6273710;22;20172;-71
2022/07/08 10:50:51;;;;;;;1999.90;999.90;;;;;;;;;;6274960;22;20203;-70
2022/07/08 10:53:46;;;;;;;1999.90;999.90;;;;;;;;;;6274684;22;20183;-70
2022/07/08 10:56:49;;;;;;;1999.90;999.90;;;;;;;;;;6274449;22;20243;-70
2022/07/08 10:59:35;;;;;;;1999.90;999.90;;;;;;;;;;6274593;22;20168;-70
2022/07/08 11:02:21;;;;;;;1999.90;999.90;;;;;;;;;;6273965;22;20544;-70
2022/07/08 11:05:06;;;;;;;1999.90;999.90;;;;;;;;;;6274847;22;20242;-70
2022/07/08 11:07:51;;;;;;;1999.90;999.90;;;;;;;;;;6274720;22;20226;-70
2022/07/08 11:10:37;;;;;;;1999.90;999.90;;;;;;;;;;6274824;22;20172;-69
2022/07/08 11:13:24;;;;;;;1999.90;999.90;;;;;;;;;;6273307;22;20376;-69
2022/07/08 11:16:10;;;;;;;1999.90;999.90;;;;;;;;;;6274571;22;20287;-71
2022/07/08 11:18:55;;;;;;;1999.90;999.90;;;;;;;;;;6274403;22;20614;-71
2022/07/08 11:21:40;;;;;;;1999.90;999.90;;;;;;;;;;6274280;22;20262;-71
2022/07/08 11:24:25;;;;;;;1999.90;999.90;;;;;;;;;;6273802;22;20288;-69
2022/07/08 11:27:10;;;;;;;1999.90;999.90;;;;;;;;;;6274573;22;20619;-71
2022/07/08 11:29:57;;;;;;;1999.90;999.90;;;;;;;;;;6272517;22;20375;-70
2022/07/08 11:32:43;;;;;;;1999.90;999.90;;;;;;;;;;6274297;22;20591;-71
2022/07/08 11:35:28;;;;;;;1999.90;999.90;;;;;;;;;;6274512;22;20159;-70
2022/07/08 11:38:13;;;;;;;1999.90;999.90;;;;;;;;;;6274174;22;20211;-70
2022/07/08 11:40:58;;;;;;;1999.90;999.90;;;;;;;;;;6274600;22;20204;-70
2022/07/08 11:43:43;;;;;;;1999.90;999.90;;;;;;;;;;6274558;22;20215;-71
2022/07/08 11:46:29;;;;;;;1999.90;999.90;;;;;;;;;;6274317;22;20274;-70
2022/07/08 11:49:14;;;;;;;1999.90;999.90;;;;;;;;;;6274339;22;20164;-69
2022/07/08 11:52:00;;;;;;;1999.90;999.90;;;;;;;;;;6273478;22;20677;-70
2022/07/08 11:54:46;;;;;;;1999.90;999.90;;;;;;;;;;6273482;22;20176;-69
2022/07/08 11:57:32;;;;;;;1999.90;999.90;;;;;;;;;;6273765;22;20164;-69
2022/07/08 12:00:17;;;;;;;1999.90;999.90;;;;;;;;;;6274448;22;20291;-71
2022/07/08 12:03:03;;;;;;;1999.90;999.90;;;;;;;;;;6273995;22;20618;-70
2022/07/08 12:05:48;;;;;;;1999.90;999.90;;;;;;;;;;6273745;22;20191;-70
2022/07/08 12:08:41;;;;;;;1999.90;999.90;;;;;;;;;;6273967;22;20219;-70
2022/07/08 12:11:26;;;;;;;1999.90;999.90;;;;;;;;;;6274467;22;20725;-70
2022/07/08 12:14:11;;;;;;;1999.90;999.90;;;;;;;;;;6274511;22;20165;-70
2022/07/08 12:16:56;;;;;;;1999.90;999.90;;;;;;;;;;6273886;22;20376;-69
2022/07/08 12:19:43;;;;;;;1999.90;999.90;;;;;;;;;;6274216;22;20668;-70
2022/07/08 12:22:44;;;;;;;1999.90;999.90;;;;;;;;;;6274503;22;20203;-70
2022/07/08 12:25:46;;;;;;;1999.90;999.90;;;;;;;;;;6274696;22;20208;-70
2022/07/08 12:28:31;;;;;;;1999.90;999.90;;;;;;;;;;6274092;22;20164;-70
2022/07/08 12:31:31;;;;;;;1999.90;999.90;;;;;;;;;;6274469;22;20203;-70
2022/07/08 12:34:17;;;;;;;1999.90;999.90;;;;;;;;;;6275699;22;20171;-70
2022/07/08 12:37:15;;;;;;;1999.90;999.90;;;;;;;;;;6276317;22;20164;-70
2022/07/08 12:40:12;;;;;;;1999.90;999.90;;;;;;;;;;6275906;22;20168;-70
2022/07/08 12:43:02;;;;;;;1999.90;999.90;;;;;;;;;;6276329;22;20184;-70
2022/07/08 12:45:47;;;;;;;1999.90;999.90;;;;;;;;;;6276128;22;20266;-70
2022/07/08 12:48:32;;;;;;;1999.90;999.90;;;;;;;;;;6275054;22;20371;-70
2022/07/08 12:51:17;;;;;;;1999.90;999.90;;;;;;;;;;6274672;22;20258;-69
2022/07/08 12:54:03;;;;;;;1999.90;999.90;;;;;;;;;;6275192;22;20207;-70
2022/07/08 12:56:48;;;;;;;1999.90;999.90;;;;;;;;;;6275628;22;20208;-71
2022/07/08 12:59:33;;;;;;;1999.90;999.90;;;;;;;;;;6274929;22;20164;-70
2022/07/08 13:02:19;;;;;;;1999.90;999.90;;;;;;;;;;6274558;22;20218;-71
2022/07/08 13:05:04;;;;;;;1999.90;999.90;;;;;;;;;;6273458;22;20454;-70
2022/07/08 13:07:49;;;;;;;1999.90;999.90;;;;;;;;;;6273887;22;20189;-69
2022/07/08 13:10:37;;;;;;;1999.90;999.90;;;;;;;;;;6272876;22;20168;-68
2022/07/08 13:13:22;;;;;;;1999.90;999.90;;;;;;;;;;6275349;22;20600;-70
2022/07/08 13:16:08;;;;;;;1999.90;999.90;;;;;;;;;;6275893;22;20164;-70
2022/07/08 13:18:53;;;;;;;1999.90;999.90;;;;;;;;;;6275621;22;20500;-70
2022/07/08 13:21:38;;;;;;;1999.90;999.90;;;;;;;;;;6275846;22;20203;-69
2022/07/08 13:24:23;;;;;;;1999.90;999.90;;;;;;;;;;6276442;22;20207;-70
2022/07/08 13:27:10;;;;;;;1999.90;999.90;;;;;;;;;;6275905;22;20160;-69
2022/07/08 13:29:56;;;;;;;1999.90;999.90;;;;;;;;;;6275589;22;20513;-70
2022/07/08 13:32:41;;;;;;;1999.90;999.90;;;;;;;;;;6276009;22;20278;-70
2022/07/08 13:35:28;;;;;;;1999.90;999.90;;;;;;;;;;6276357;22;20211;-70
2022/07/08 13:38:13;;;;;;;1999.90;999.90;;;;;;;;;;6275769;22;20164;-70
2022/07/08 13:40:58;;;;;;;1999.90;999.90;;;;;;;;;;6275857;22;20266;-70
2022/07/08 13:43:44;;;;;;;1999.90;999.90;;;;;;;;;;6275694;22;20168;-70
2022/07/08 13:46:30;;;;;;;1999.90;999.90;;;;;;;;;;6275765;22;20658;-70
2022/07/08 13:49:15;;;;;;;1999.90;999.90;;;;;;;;;;6275752;22;20164;-70
2022/07/08 13:52:00;;;;;;;1999.90;999.90;;;;;;;;;;6275955;22;20199;-70
2022/07/08 13:54:45;;;;;;;1999.90;999.90;;;;;;;;;;6275673;22;20618;-70
2022/07/08 13:57:30;;;;;;;1999.90;999.90;;;;;;;;;;6275654;22;20274;-70
2022/07/08 14:00:17;;;;;;;1999.90;999.90;;;;;;;;;;6275625;22;20168;-70
2022/07/08 14:03:02;;;;;;;1999.90;999.90;;;;;;;;;;6275590;22;20164;-70
2022/07/08 14:05:46;;;;;;;1999.90;999.90;;;;;;;;;;6275740;22;20282;-70
2022/07/08 14:08:32;;;;;;;1999.90;999.90;;;;;;;;;;6275127;22;20180;-70
2022/07/08 14:11:17;;;;;;;1999.90;999.90;;;;;;;;;;6275428;22;20207;-70
2022/07/08 14:14:02;;;;;;;1999.90;999.90;;;;;;;;;;6275458;22;20188;-70
2022/07/08 14:16:48;;;;;;;1999.90;999.90;;;;;;;;;;6275422;22;20211;-70
2022/07/08 14:19:33;;;;;;;1999.90;999.90;;;;;;;;;;6274999;22;20222;-70
2022/07/08 14:22:18;;;;;;;1999.90;999.90;;;;;;;;;;6275236;22;20204;-70
2022/07/08 14:25:04;;;;;;;1999.90;999.90;;;;;;;;;;6273559;22;20368;-70
2022/07/08 14:27:49;;;;;;;1999.90;999.90;;;;;;;;;;6274958;22;20215;-68
2022/07/08 14:30:33;;;;;;;1999.90;999.90;;;;;;;;;;6275172;22;20164;-70
2022/07/08 14:33:20;;;;;;;1999.90;999.90;;;;;;;;;;6275252;22;20167;-70
2022/07/08 14:36:05;;;;;;;1999.90;999.90;;;;;;;;;;6275129;22;20215;-70
2022/07/08 14:38:50;;;;;;;1999.90;999.90;;;;;;;;;;6275249;22;20169;-70
2022/07/08 14:41:35;;;;;;;1999.90;999.90;;;;;;;;;;6275186;22;20643;-70
2022/07/08 14:44:20;;;;;;;1999.90;999.90;;;;;;;;;;6275111;22;20626;-70
2022/07/08 14:47:05;;;;;;;1999.90;999.90;;;;;;;;;;6275096;22;20239;-69
2022/07/08 14:49:52;;;;;;;1999.90;999.90;;;;;;;;;;6274727;22;20164;-70
2022/07/08 14:52:37;;;;;;;1999.90;999.90;;;;;;;;;;6275041;22;20548;-70
2022/07/08 14:55:22;;;;;;;1999.90;999.90;;;;;;;;;;6274908;22;20209;-70
2022/07/08 14:58:07;;;;;;;1999.90;999.90;;;;;;;;;;6274709;22;20224;-70
2022/07/08 15:00:52;;;;;;;1999.90;999.90;;;;;;;;;;6274885;22;20222;-70
2022/07/08 15:03:37;;;;;;;1999.90;999.90;;;;;;;;;;6274958;22;20633;-70
2022/07/08 15:06:23;;;;;;;1999.90;999.90;;;;;;;;;;6274916;22;20268;-70
2022/07/08 15:09:08;;;;;;;1999.90;999.90;;;;;;;;;;6274691;22;20655;-69
2022/07/08 15:11:53;;;;;;;1999.90;999.90;;;;;;;;;;6274859;22;20249;-70
2022/07/08 15:14:39;;;;;;;1999.90;999.90;;;;;;;;;;6275049;22;20500;-70
2022/07/08 15:17:24;;;;;;;1999.90;999.90;;;;;;;;;;6274945;22;20510;-70
2022/07/08 15:20:10;;;;;;;1999.90;999.90;;;;;;;;;;6274789;22;20253;-70
2022/07/08 15:22:56;;;;;;;1999.90;999.90;;;;;;;;;;6274946;22;20167;-70
2022/07/08 15:25:41;;;;;;;1999.90;999.90;;;;;;;;;;6276895;22;20547;-70
2022/07/08 15:28:27;;;;;;;1999.90;999.90;;;;;;;;;;6273818;22;20418;-70
2022/07/08 15:31:12;;;;;;;1999.90;999.90;;;;;;;;;;6274805;22;20203;-70
2022/07/08 15:33:56;;;;;;;1999.90;999.90;;;;;;;;;;6274828;22;20244;-70
2022/07/08 15:36:41;;;;;;;1999.90;999.90;;;;;;;;;;6274832;22;20198;-69
2022/07/08 15:39:28;;;;;;;1999.90;999.90;;;;;;;;;;6274586;22;20242;-70
2022/07/08 15:42:13;;;;;;;1999.90;999.90;;;;;;;;;;6274746;22;20203;-70
2022/07/08 15:44:57;;;;;;;1999.90;999.90;;;;;;;;;;6274885;22;20672;-70
2022/07/08 15:47:42;;;;;;;1999.90;999.90;;;;;;;;;;6274434;22;20244;-70
2022/07/08 15:50:27;;;;;;;1999.90;999.90;;;;;;;;;;6274764;22;20218;-67
2022/07/08 15:53:12;;;;;;;1999.90;999.90;;;;;;;;;;6275289;22;20195;-70
2022/07/08 15:55:59;;;;;;;1999.90;999.90;;;;;;;;;;6275268;22;20634;-70
2022/07/08 15:58:44;;;;;;;1999.90;999.90;;;;;;;;;;6274580;22;20211;-70
2022/07/08 16:01:31;;;;;;;1999.90;999.90;;;;;;;;;;6274675;22;20709;-70
2022/07/08 16:04:16;;;;;;;1999.90;999.90;;;;;;;;;;6274766;22;20242;-70
2022/07/08 16:07:01;;;;;;;1999.90;999.90;;;;;;;;;;6274964;22;20268;-70
2022/07/08 16:09:46;;;;;;;1999.90;999.90;;;;;;;;;;6276323;22;20167;-70
2022/07/08 16:12:33;;;;;;;1999.90;999.90;;;;;;;;;;6276643;22;20276;-70
2022/07/08 16:15:18;;;;;;;1999.90;999.90;;;;;;;;;;6276394;22;20463;-70
2022/07/08 16:18:04;;;;;;;1999.90;999.90;;;;;;;;;;6276145;22;20650;-70
2022/07/08 16:20:49;;;;;;;1999.90;999.90;;;;;;;;;;6276533;22;20710;-69
2022/07/08 16:23:34;;;;;;;1999.90;999.90;;;;;;;;;;6276575;22;20168;-70
2022/07/08 16:26:19;;;;;;;1999.90;999.90;;;;;;;;;;6276323;22;20188;-70
2022/07/08 16:29:06;;;;;;;1999.90;999.90;;;;;;;;;;6276212;22;20168;-70
2022/07/08 16:31:51;;;;;;;1999.90;999.90;;;;;;;;;;6276226;22;20204;-69
2022/07/08 16:34:36;;;;;;;1999.90;999.90;;;;;;;;;;6276430;22;20225;-70
2022/07/08 16:37:21;;;;;;;1999.90;999.90;;;;;;;;;;6276343;22;20556;-70
2022/07/08 16:40:07;;;;;;;1999.90;999.90;;;;;;;;;;6276233;22;20241;-70
2022/07/08 16:42:51;;;;;;;1999.90;999.90;;;;;;;;;;6276415;22;20181;-70
2022/07/08 16:45:38;;;;;;;1999.90;999.90;;;;;;;;;;6276250;22;20192;-70
2022/07/08 16:48:23;;;;;;;1999.90;999.90;;;;;;;;;;6276312;22;20399;-71
2022/07/08 16:51:08;;;;;;;1999.90;999.90;;;;;;;;;;6278324;22;20205;-70
2022/07/08 16:53:53;;;;;;;1999.90;999.90;;;;;;;;;;6277981;22;20274;-70
2022/07/08 16:56:40;;;;;;;1999.90;999.90;;;;;;;;;;6277798;22;20175;-70
2022/07/08 16:59:25;;;;;;;1999.90;999.90;;;;;;;;;;6277422;22;20223;-70
2022/07/08 17:02:13;;;;;;;1999.90;999.90;;;;;;;;;;6275859;22;20694;-70
2022/07/08 17:04:57;;;;;;;1999.90;999.90;;;;;;;;;;6274877;22;20436;-70
2022/07/08 17:07:42;;;;;;;1999.90;999.90;;;;;;;;;;6275807;22;20192;-70
2022/07/08 17:10:27;;;;;;;1999.90;999.90;;;;;;;;;;6276089;22;20175;-70
2022/07/08 17:13:12;;;;;;;1999.90;999.90;;;;;;;;;;6276070;22;20184;-70
2022/07/08 17:15:58;;;;;;;1999.90;999.90;;;;;;;;;;6276014;22;20171;-70
2022/07/08 17:18:45;;;;;;;1999.90;999.90;;;;;;;;;;6275441;22;20693;-70
2022/07/08 17:21:31;;;;;;;1999.90;999.90;;;;;;;;;;6275978;22;20199;-70
2022/07/08 17:24:16;;;;;;;1999.90;999.90;;;;;;;;;;6276042;22;20168;-70
2022/07/08 17:27:01;;;;;;;1999.90;999.90;;;;;;;;;;6275868;22;20286;-70
2022/07/08 17:29:48;;;;;;;1999.90;999.90;;;;;;;;;;6275538;22;20617;-70
2022/07/08 17:32:35;;;;;;;1999.90;999.90;;;;;;;;;;6275805;22;20207;-69
2022/07/08 17:35:21;;;;;;;1999.90;999.90;;;;;;;;;;6275181;22;20426;-70
2022/07/08 17:38:06;;;;;;;1999.90;999.90;;;;;;;;;;6275492;22;20164;-69
2022/07/08 17:40:52;;;;;;;1999.90;999.90;;;;;;;;;;6275707;22;20334;-70
2022/07/08 17:43:38;;;;;;;1999.90;999.90;;;;;;;;;;6275717;22;20168;-70
2022/07/08 17:46:22;;;;;;;1999.90;999.90;;;;;;;;;;6275599;22;20191;-70
2022/07/08 17:49:07;;;;;;;1999.90;999.90;;;;;;;;;;6275375;22;20227;-69
2022/07/08 17:51:53;;;;;;;1999.90;999.90;;;;;;;;;;6274598;22;20353;-69
2022/07/08 17:54:39;;;;;;;1999.90;999.90;;;;;;;;;;6275635;22;20215;-69
2022/07/08 17:57:24;;;;;;;1999.90;999.90;;;;;;;;;;6275642;22;20167;-70
2022/07/08 18:00:09;;;;;;;1999.90;999.90;;;;;;;;;;6275301;22;20160;-70
2022/07/08 18:02:54;;;;;;;1999.90;999.90;;;;;;;;;;6275580;22;20211;-70
2022/07/08 18:05:39;;;;;;;1999.90;999.90;;;;;;;;;;6275641;22;20552;-70
2022/07/08 18:08:25;;;;;;;1999.90;999.90;;;;;;;;;;6275213;22;20666;-70
2022/07/08 18:11:10;;;;;;;1999.90;999.90;;;;;;;;;;6275368;22;20534;-70
2022/07/08 18:13:55;;;;;;;1999.90;999.90;;;;;;;;;;6275446;22;20668;-70
2022/07/08 18:16:40;;;;;;;1999.90;999.90;;;;;;;;;;6275384;22;20287;-68
2022/07/08 18:19:25;;;;;;;1999.90;999.90;;;;;;;;;;6275098;22;20164;-69
2022/07/08 18:22:10;;;;;;;1999.90;999.90;;;;;;;;;;6274844;22;20379;-70
2022/07/08 18:24:56;;;;;;;1999.90;999.90;;;;;;;;;;6275382;22;20165;-70
2022/07/08 18:27:41;;;;;;;1999.90;999.90;;;;;;;;;;6275009;22;20194;-68
2022/07/08 18:30:26;;;;;;;1999.90;999.90;;;;;;;;;;6275189;22;20542;-70
2022/07/08 18:33:11;;;;;;;1999.90;999.90;;;;;;;;;;6275262;22;20167;-68
2022/07/08 18:35:57;;;;;;;1999.90;999.90;;;;;;;;;;6275268;22;20249;-70
2022/07/08 18:38:41;;;;;;;1999.90;999.90;;;;;;;;;;6274151;22;20468;-68
2022/07/08 18:41:28;;;;;;;1999.90;999.90;;;;;;;;;;6275531;22;20257;-70
2022/07/08 18:44:13;;;;;;;1999.90;999.90;;;;;;;;;;6275136;22;20169;-70
2022/07/08 18:46:58;;;;;;;1999.90;999.90;;;;;;;;;;6275086;22;20664;-70
2022/07/08 18:49:42;;;;;;;1999.90;999.90;;;;;;;;;;6274781;22;20180;-68
2022/07/08 18:52:27;;;;;;;1999.90;999.90;;;;;;;;;;6274991;22;20209;-70
2022/07/08 18:55:13;;;;;;;1999.90;999.90;;;;;;;;;;6275104;22;20617;-70
2022/07/08 18:58:00;;;;;;;1999.90;999.90;;;;;;;;;;6274683;22;20172;-70
2022/07/08 19:00:45;;;;;;;1999.90;999.90;;;;;;;;;;6274914;22;20206;-70
2022/07/08 19:03:30;;;;;;;1999.90;999.90;;;;;;;;;;6275119;22;20230;-69
2022/07/08 19:06:15;;;;;;;1999.90;999.90;;;;;;;;;;6275029;22;20203;-70
2022/07/08 19:08:59;;;;;;;1999.90;999.90;;;;;;;;;;6274614;22;20180;-70
2022/07/08 19:11:45;;;;;;;1999.90;999.90;;;;;;;;;;6273236;22;20371;-69
2022/07/08 19:14:32;;;;;;;1999.90;999.90;;;;;;;;;;6274811;22;20167;-70
2022/07/08 19:17:17;;;;;;;1999.90;999.90;;;;;;;;;;6275061;22;20161;-69
2022/07/08 19:20:03;;;;;;;1999.90;999.90;;;;;;;;;;6275066;22;20278;-69
2022/07/08 19:22:47;;;;;;;1999.90;999.90;;;;;;;;;;6274987;22;20503;-70
2022/07/08 19:25:32;;;;;;;1999.90;999.90;;;;;;;;;;6274964;22;20167;-70